Latest Weather Observations for Bushy Park

IDT60901

Issued at 5:11 am EST Tuesday 24 April 2018 (issued every 10 minutes, with the page automatically refreshed every 10 minutes)

About weather observations | Map of Hobart area stations | Latest observations for Hobart area | Other Formats
Station Details ID: 095003 Name: BUSHY PARK (BUSHY PARK ESTATES) Lat: -42.71 Lon: 146.90 Height: 27.0 m
Data from the previous 72 hours. | See also: Recent months at Bushy Park
Date/Time
EST
Temp
°C
App
Temp
°C
Dew
Point
°C
Rel
Hum
%
Delta-T
°C
Wind Press
QNH
hPa
Press
MSL
hPa
Rain since
9am
mm
Dir  Spd
km/h
Gust
km/h
Spd
kts
Gust
kts
24/05:00am 5.8 3.4 5.3 97 0.2 NNW 7 9 4 5 - - 0.0
24/04:30am 5.7 3.5 5.2 97 0.2 N 6 7 3 4 - - 0.0
24/04:00am 5.8 4.7 5.3 97 0.2 CALM 0 0 0 0 - - 0.0
24/03:30am 6.0 3.9 5.6 97 0.2 NNW 6 7 3 4 - - 0.0
24/03:00am 5.9 3.7 5.2 95 0.3 N 6 7 3 4 - - 0.0
24/02:30am 6.0 4.2 5.3 95 0.3 NNW 4 9 2 5 - - 0.0
24/02:00am 6.4 5.0 5.7 95 0.3 SE 2 6 1 3 - - 0.0
24/01:30am 6.1 4.0 5.7 97 0.2 NNW 6 7 3 4 - - 0.0
24/01:00am 6.8 5.9 6.1 95 0.3 CALM 0 0 0 0 - - 0.0
24/12:30am 7.0 5.3 6.1 94 0.4 NE 4 7 2 4 - - 0.0
24/12:00am 7.6 6.8 6.7 94 0.4 CALM 0 0 0 0 - - 0.0
 
Date/Time
EST
Temp
°C
App
Temp
°C
Dew
Point
°C
Rel
Hum
%
Delta-T
°C
Wind Press
QNH
hPa
Press
MSL
hPa
Rain since
9am
mm
Dir  Spd
km/h
Gust
km/h
Spd
kts
Gust
kts
23/11:30pm 7.7 6.9 6.6 93 0.5 CALM 0 0 0 0 - - 0.0
23/11:00pm 8.0 6.1 6.9 93 0.5 WNW 6 7 3 4 - - 0.0
23/10:30pm 8.1 7.0 7.0 93 0.5 SSE 2 9 1 5 - - 0.0
23/10:00pm 8.8 8.3 7.8 93 0.5 CALM 0 0 0 0 - - 0.0
23/09:30pm 8.9 8.3 7.4 90 0.7 CALM 0 0 0 0 - - 0.0
23/09:00pm 9.4 7.7 7.5 88 0.9 NNE 6 7 3 4 - - 0.0
23/08:30pm 10.1 8.3 7.8 86 1.1 NE 7 13 4 7 - - 0.0
23/08:00pm 10.2 8.6 7.9 86 1.1 E 6 9 3 5 - - 0.0
23/07:30pm 10.5 8.8 8.3 86 1.1 S 7 17 4 9 - - 0.0
23/07:00pm 10.5 9.4 8.5 87 1.0 SSE 4 11 2 6 - - 0.0
23/06:30pm 11.0 9.4 8.8 86 1.1 ENE 7 11 4 6 - - 0.0
23/06:00pm 11.5 11.2 8.7 83 1.4 CALM 0 0 0 0 - - 0.0
23/05:30pm 13.2 11.4 9.3 77 2.0 S 9 11 5 6 - - 0.0
23/05:00pm 14.6 13.1 8.3 66 3.2 ESE 6 7 3 4 - - 0.0
23/04:30pm 16.8 15.0 8.0 56 4.5 SSW 7 7 4 4 - - 0.0
23/04:00pm 18.2 16.2 7.2 48 5.5 SSW 7 9 4 5 - - 0.0
23/03:30pm 18.8 16.9 7.7 48 5.7 S 7 9 4 5 - - 0.0
23/03:00pm 18.8 17.7 6.7 45 6.1 N 2 9 1 5 - - 0.0
23/02:30pm 19.3 17.4 7.7 47 5.9 NNE 7 9 4 5 - - 0.0
23/02:00pm 19.9 18.1 7.8 45 6.2 NNW 7 9 4 5 - - 0.0
23/01:30pm 19.1 17.0 8.1 49 5.7 NNW 9 13 5 7 - - 0.0
23/01:00pm 18.4 16.5 9.1 54 4.9 N 9 13 5 7 - - 0.0
23/12:30pm 17.5 15.4 9.6 60 4.1 NNE 11 13 6 7 - - 0.0
23/12:00pm 17.1 14.3 8.6 57 4.4 N 13 17 7 9 - - 0.0
23/11:30am 16.5 14.0 8.3 58 4.2 NNW 11 13 6 7 - - 0.0
23/11:00am 15.8 13.0 8.4 61 3.8 N 13 15 7 8 - - 0.0
23/10:30am 13.4 11.5 8.9 74 2.3 NNE 9 15 5 8 - - 0.0
23/10:00am 11.5 10.0 9.1 85 1.2 SSE 7 11 4 6 - - 0.0
23/09:30am 11.0 9.5 8.6 85 1.2 NNW 6 9 3 5 - - 0.0
23/09:00am 8.7 7.8 7.9 95 0.4 ESE 2 9 1 5 - - 0.0
23/08:30am 7.3 5.5 7.1 99 0.1 N 6 9 3 5 - - 0.0
23/08:00am 5.8 3.4 5.3 97 0.2 NNW 7 11 4 6 - - 0.0
23/07:30am 4.9 2.5 4.4 97 0.2 WNW 6 7 3 4 - - 0.0
23/07:00am 4.5 1.9 4.0 97 0.2 SSW 7 9 4 5 - - 0.0
23/06:30am 5.2 2.7 4.7 97 0.2 NNW 7 11 4 6 - - 0.0
23/06:00am 5.6 3.2 5.1 97 0.2 NW 7 9 4 5 - - 0.0
23/05:30am 5.7 3.5 5.5 99 0.1 NW 6 7 3 4 - - 0.0
23/05:00am 5.8 3.6 5.3 97 0.2 E 6 9 3 5 - - 0.0
23/04:30am 5.6 2.7 4.9 95 0.3 NNW 9 9 5 5 - - 0.0
23/04:00am 6.4 4.1 5.7 95 0.3 NNW 7 11 4 6 - - 0.0
23/03:30am 6.4 3.8 6.0 97 0.2 NW 9 9 5 5 - - 0.0
23/03:00am 6.6 4.6 6.2 97 0.2 W 6 7 3 4 - - 0.0
23/02:30am 7.7 5.7 7.1 96 0.3 NW 7 9 4 5 - - 0.0
23/02:00am 8.1 6.3 7.3 95 0.4 NW 6 7 3 4 - - 0.0
23/01:30am 8.7 6.5 7.9 95 0.4 NW 9 11 5 6 - - 0.0
23/01:00am 8.9 7.7 8.1 95 0.4 SW 4 9 2 5 - - 0.0
23/12:30am 8.9 7.7 8.1 95 0.4 SW 4 7 2 4 - - 0.0
23/12:00am 9.6 9.3 8.8 95 0.4 CALM 0 0 0 0 - - 0.0
 
Date/Time
EST
Temp
°C
App
Temp
°C
Dew
Point
°C
Rel
Hum
%
Delta-T
°C
Wind Press
QNH
hPa
Press
MSL
hPa
Rain since
9am
mm
Dir  Spd
km/h
Gust
km/h
Spd
kts
Gust
kts
22/11:30pm 9.9 8.5 8.7 92 0.6 S 6 9 3 5 - - 0.0
22/11:00pm 10.6 10.5 9.4 92 0.6 CALM 0 0 0 0 - - 0.0
22/10:30pm 11.3 11.2 9.5 89 0.9 CALM 0 0 0 0 - - 0.0
22/10:00pm 12.0 11.4 10.3 89 0.9 ESE 4 7 2 4 - - 0.0
22/09:30pm 12.8 13.0 10.7 87 1.1 CALM 0 0 0 0 - - 0.0
22/09:00pm 13.3 12.7 10.4 82 1.5 SW 4 7 2 4 - - 0.0
22/08:30pm 13.3 12.1 10.4 82 1.5 ENE 7 9 4 5 - - 0.0
22/08:00pm 13.5 12.6 10.5 82 1.6 N 6 9 3 5 - - 0.0
22/07:30pm 13.7 12.1 10.1 79 1.9 NW 9 9 5 5 - - 0.0
22/07:00pm 14.9 13.1 9.5 70 2.8 WSW 9 13 5 7 - - 0.0
22/06:30pm 15.2 13.5 9.9 70 2.8 WSW 9 15 5 8 - - 0.0
22/06:00pm 15.7 14.4 10.0 69 3.0 WNW 7 9 4 5 - - 0.0
22/05:30pm 16.9 14.9 10.2 64 3.5 SW 11 15 6 8 - - 0.0
22/05:00pm 17.0 15.1 10.5 65 3.5 SW 11 13 6 7 - - 0.0
22/04:30pm 18.4 16.2 10.7 61 4.2 SW 13 19 7 10 - - 0.0
22/04:00pm 19.3 16.7 10.7 57 4.7 SW 15 19 8 10 - - 0.0
22/03:30pm 19.7 17.0 10.5 55 5.0 SW 15 22 8 12 - - 0.0
22/03:00pm 21.6 19.6 11.4 52 5.7 WSW 13 20 7 11 - - 0.0
22/02:30pm 21.5 20.2 11.1 51 5.7 N 9 11 5 6 - - 0.0
22/02:00pm 21.3 19.5 11.0 51 5.7 N 11 15 6 8 - - 0.0
22/01:30pm 20.9 20.0 10.7 52 5.6 WNW 6 9 3 5 - - 0.0
22/01:00pm 19.9 18.4 10.6 55 5.0 NNE 9 15 5 8 - - 0.0
22/12:30pm 19.7 18.1 10.1 54 5.2 NE 9 15 5 8 - - 0.0
22/12:00pm 18.8 17.1 9.8 56 4.8 NW 9 11 5 6 - - 0.0
22/11:30am 17.0 15.7 10.1 64 3.6 NW 7 9 4 5 - - 0.0
22/11:00am 15.6 14.5 10.7 72 2.6 N 7 9 4 5 - - 0.0
22/10:30am 13.5 12.5 10.3 81 1.7 E 6 9 3 5 - - 0.0
22/10:00am 10.8 9.5 10.0 95 0.4 SSE 7 7 4 4 - - 0.0
22/09:30am 9.1 7.5 8.9 99 0.1 S 7 9 4 5 - - 0.0
22/09:00am 8.6 8.2 8.2 97 0.2 CALM 0 9 0 5 - - 0.0
22/08:30am 7.7 6.7 7.5 99 0.1 N 2 7 1 4 - - 0.0
22/08:00am 7.7 5.4 7.3 97 0.2 NNW 9 9 5 5 - - 0.0
22/07:30am 6.7 4.5 6.0 95 0.3 NNW 7 9 4 5 - - 0.0
22/07:00am 5.4 2.9 4.7 95 0.3 NW 7 11 4 6 - - 0.0
22/06:30am 5.3 4.2 5.1 99 0.1 CALM 0 0 0 0 - - 0.0
22/06:00am 5.8 3.6 5.3 97 0.2 NW 6 9 3 5 - - 0.0
22/05:30am 6.0 5.0 5.6 97 0.2 CALM 0 7 0 4 - - 0.0
22/05:00am 6.5 5.2 6.1 97 0.2 NNW 2 7 1 4 - - 0.0
22/04:30am 7.3 5.3 6.9 97 0.2 NW 7 9 4 5 - - 0.0
22/04:00am 7.7 5.3 7.1 96 0.3 NW 9 11 5 6 - - 0.0
22/03:30am 8.6 6.4 8.0 96 0.3 NW 9 11 5 6 - - 0.0
22/03:00am 9.1 8.1 8.7 97 0.2 NW 4 7 2 4 - - 0.0
22/02:30am 9.2 7.6 8.6 96 0.3 SW 7 11 4 6 - - 0.0
22/02:00am 9.0 8.7 8.6 97 0.2 CALM 0 0 0 0 - - 0.0
22/01:30am 8.6 7.0 8.0 96 0.3 NW 6 11 3 6 - - 0.0
22/01:00am 8.5 6.7 7.9 96 0.3 NW 7 9 4 5 - - 0.0
22/12:30am 9.2 7.6 8.6 96 0.3 NW 7 9 4 5 - - 0.0
22/12:00am 8.5 6.7 7.9 96 0.3 W 7 9 4 5 - - 0.0
 
Date/Time
EST
Temp
°C
App
Temp
°C
Dew
Point
°C
Rel
Hum
%
Delta-T
°C
Wind Press
QNH
hPa
Press
MSL
hPa
Rain since
9am
mm
Dir  Spd
km/h
Gust
km/h
Spd
kts
Gust
kts
21/11:30pm 9.1 8.7 8.3 95 0.4 CALM 0 0 0 0 - - 0.0
21/11:00pm 8.9 8.5 8.1 95 0.4 CALM 0 0 0 0 - - 0.0
21/10:30pm 9.2 7.1 8.4 95 0.4 WSW 9 11 5 6 - - 0.0
21/10:00pm 9.8 9.3 9.2 96 0.3 SW 2 7 1 4 - - 0.0
21/09:30pm 10.3 10.2 9.5 95 0.4 CALM 0 0 0 0 - - 0.0
21/09:00pm 10.4 9.2 9.6 95 0.4 SW 6 7 3 4 - - 0.0
21/08:30pm 10.5 9.3 9.7 95 0.4 NW 6 7 3 4 - - 0.0
21/08:00pm 10.8 10.4 9.8 93 0.5 WNW 2 7 1 4 - - 0.0
21/07:30pm 10.3 8.5 9.3 93 0.5 SW 9 11 5 6 - - 0.0
21/07:00pm 11.1 10.3 9.5 90 0.8 SW 4 7 2 4 - - 0.0
21/06:30pm 12.9 13.2 11.0 88 1.0 CALM 0 0 0 0 - - 0.0
21/06:00pm 13.9 14.4 11.5 85 1.3 CALM 0 0 0 0 - - 0.0
21/05:30pm 14.8 14.1 11.5 80 1.8 NW 6 7 3 4 - - 0.0
21/05:00pm 15.4 14.7 11.5 77 2.1 SSW 6 7 3 4 - - 0.0
21/04:30pm 15.9 16.3 11.1 73 2.6 CALM 0 0 0 0 - - 0.0
21/04:00pm 16.1 16.5 11.1 72 2.7 CALM 0 0 0 0 - - 0.0
21/03:30pm 16.6 16.4 10.4 67 3.3 N 2 7 1 4 - - 0.0
21/03:00pm 16.6 16.5 9.6 63 3.7 CALM 0 6 0 3 - - 0.0
21/02:30pm 16.7 15.6 10.1 65 3.5 NNE 6 9 3 5 - - 0.0
21/02:00pm 15.9 15.8 9.6 66 3.3 CALM 0 7 0 4 - - 0.0
21/01:30pm 16.7 15.3 9.0 60 4.0 ENE 6 7 3 4 - - 0.0
21/01:00pm 14.9 13.4 9.3 69 2.9 NE 7 9 4 5 - - 0.0
21/12:30pm 14.5 13.1 9.7 73 2.5 NNE 7 13 4 7 - - 0.0
21/12:00pm 13.6 11.8 9.5 76 2.1 WNW 9 15 5 8 - - 0.0
21/11:30am 11.6 11.0 8.8 83 1.4 N 2 7 1 4 - - 0.0
21/11:00am 10.8 9.1 8.4 85 1.2 NNE 7 9 4 5 - - 0.0
21/10:30am 10.8 9.2 8.6 86 1.1 NNW 7 9 4 5 - - 0.0
21/10:00am 10.3 8.3 8.5 89 0.9 NNE 9 9 5 5 - - 0.0
21/09:30am 10.1 8.1 8.7 91 0.7 NNW 9 13 5 7 - - 0.0
21/09:00am 9.8 7.4 8.6 92 0.6 NNW 11 15 6 8 - - 0.0
21/08:30am 9.5 7.5 8.5 93 0.5 NNW 9 13 5 7 - - 0.0
21/08:00am 9.2 6.7 8.4 95 0.4 NW 11 13 6 7 - - 0.0
21/07:30am 9.0 6.5 8.4 96 0.3 NNW 11 15 6 8 - - 0.0
21/07:00am 9.1 7.1 8.5 96 0.3 NNW 9 11 5 6 - - 0.0
21/06:30am 8.9 7.8 8.3 96 0.3 N 4 7 2 4 - - 0.0
21/06:00am 8.8 8.4 8.4 97 0.2 CALM 0 0 0 0 - - 0.0
21/05:30am 8.8 8.4 8.2 96 0.3 CALM 0 0 0 0 - - 0.0

Latest Capital City Observations: Canberra | Sydney | Melbourne | Brisbane | Adelaide | Perth | Hobart | Darwin

Other Formats:

Comma delimited format used in spreadsheet applications
http://www.bom.gov.au/fwo/IDT60901/IDT60901.94964.axf

JavaScript Object Notation format (JSON) in row-major order
http://www.bom.gov.au/fwo/IDT60901/IDT60901.94964.json